sensor_id;sensor_type;location;lat;lon;timestamp;temperature;humidity
18321;DHT22;54904;54.350;18.664;2023-04-24T00:01:07;17.90;91.40
18321;DHT22;54904;54.350;18.664;2023-04-24T00:03:34;18.00;91.60
18321;DHT22;54904;54.350;18.664;2023-04-24T00:06:01;17.90;91.60
18321;DHT22;54904;54.350;18.664;2023-04-24T00:08:29;17.80;91.70
18321;DHT22;54904;54.350;18.664;2023-04-24T00:10:56;17.80;91.80
18321;DHT22;54904;54.350;18.664;2023-04-24T00:13:24;17.70;91.90
18321;DHT22;54904;54.350;18.664;2023-04-24T00:15:51;17.60;92.00
18321;DHT22;54904;54.350;18.664;2023-04-24T00:18:19;17.60;92.00
18321;DHT22;54904;54.350;18.664;2023-04-24T00:20:46;17.50;92.00
18321;DHT22;54904;54.350;18.664;2023-04-24T00:23:13;17.50;92.00
18321;DHT22;54904;54.350;18.664;2023-04-24T00:25:40;17.50;92.00
18321;DHT22;54904;54.350;18.664;2023-04-24T00:28:08;17.50;92.00
18321;DHT22;54904;54.350;18.664;2023-04-24T00:30:35;17.50;92.00
18321;DHT22;54904;54.350;18.664;2023-04-24T00:33:02;17.50;92.00
18321;DHT22;54904;54.350;18.664;2023-04-24T00:35:31;17.50;92.00
18321;DHT22;54904;54.350;18.664;2023-04-24T00:37:58;17.50;92.00
18321;DHT22;54904;54.350;18.664;2023-04-24T00:40:25;17.40;91.90
18321;DHT22;54904;54.350;18.664;2023-04-24T00:42:53;17.40;91.90
18321;DHT22;54904;54.350;18.664;2023-04-24T00:45:20;17.40;91.90
18321;DHT22;54904;54.350;18.664;2023-04-24T00:47:48;17.40;92.00
18321;DHT22;54904;54.350;18.664;2023-04-24T00:50:16;17.30;92.00
18321;DHT22;54904;54.350;18.664;2023-04-24T00:52:44;17.20;92.10
18321;DHT22;54904;54.350;18.664;2023-04-24T00:55:12;17.10;92.10
18321;DHT22;54904;54.350;18.664;2023-04-24T00:57:39;17.10;92.10
18321;DHT22;54904;54.350;18.664;2023-04-24T01:00:07;17.00;92.10
18321;DHT22;54904;54.350;18.664;2023-04-24T01:02:38;16.90;92.10
18321;DHT22;54904;54.350;18.664;2023-04-24T01:05:10;16.90;92.10
18321;DHT22;54904;54.350;18.664;2023-04-24T01:07:38;16.90;92.10
18321;DHT22;54904;54.350;18.664;2023-04-24T01:10:09;16.90;92.20
18321;DHT22;54904;54.350;18.664;2023-04-24T01:12:37;16.90;92.20
18321;DHT22;54904;54.350;18.664;2023-04-24T01:15:05;16.90;92.20
18321;DHT22;54904;54.350;18.664;2023-04-24T01:17:34;16.90;92.20
18321;DHT22;54904;54.350;18.664;2023-04-24T01:20:01;16.90;92.10
18321;DHT22;54904;54.350;18.664;2023-04-24T01:22:33;16.80;92.10
18321;DHT22;54904;54.350;18.664;2023-04-24T01:25:00;16.80;92.20
18321;DHT22;54904;54.350;18.664;2023-04-24T01:27:29;16.80;92.20
18321;DHT22;54904;54.350;18.664;2023-04-24T01:29:56;16.70;92.20
18321;DHT22;54904;54.350;18.664;2023-04-24T01:32:24;16.70;92.30
18321;DHT22;54904;54.350;18.664;2023-04-24T01:34:51;16.70;92.30
18321;DHT22;54904;54.350;18.664;2023-04-24T01:37:18;16.80;92.30
18321;DHT22;54904;54.350;18.664;2023-04-24T01:39:47;16.80;92.20
18321;DHT22;54904;54.350;18.664;2023-04-24T01:42:14;16.80;92.20
18321;DHT22;54904;54.350;18.664;2023-04-24T01:44:41;16.70;92.20
18321;DHT22;54904;54.350;18.664;2023-04-24T01:47:09;16.70;92.20
18321;DHT22;54904;54.350;18.664;2023-04-24T01:49:38;16.70;92.20
18321;DHT22;54904;54.350;18.664;2023-04-24T01:52:05;16.70;92.30
18321;DHT22;54904;54.350;18.664;2023-04-24T01:54:32;16.70;92.30
18321;DHT22;54904;54.350;18.664;2023-04-24T01:57:00;16.70;92.20
18321;DHT22;54904;54.350;18.664;2023-04-24T01:59:28;16.70;92.30
18321;DHT22;54904;54.350;18.664;2023-04-24T02:01:56;16.70;92.30
18321;DHT22;54904;54.350;18.664;2023-04-24T02:04:23;16.70;92.30
18321;DHT22;54904;54.350;18.664;2023-04-24T02:06:50;16.60;92.20
18321;DHT22;54904;54.350;18.664;2023-04-24T02:09:17;16.60;92.20
18321;DHT22;54904;54.350;18.664;2023-04-24T02:11:45;16.60;92.30
18321;DHT22;54904;54.350;18.664;2023-04-24T02:14:13;16.60;92.40
18321;DHT22;54904;54.350;18.664;2023-04-24T02:16:40;16.60;92.30
18321;DHT22;54904;54.350;18.664;2023-04-24T02:19:08;16.60;92.30
18321;DHT22;54904;54.350;18.664;2023-04-24T02:21:35;16.60;92.30
18321;DHT22;54904;54.350;18.664;2023-04-24T02:24:02;16.50;92.60
18321;DHT22;54904;54.350;18.664;2023-04-24T02:26:29;16.50;92.30
18321;DHT22;54904;54.350;18.664;2023-04-24T02:28:57;16.50;92.40
18321;DHT22;54904;54.350;18.664;2023-04-24T02:31:26;16.50;92.40
18321;DHT22;54904;54.350;18.664;2023-04-24T02:33:53;16.40;92.40
18321;DHT22;54904;54.350;18.664;2023-04-24T02:36:20;16.40;92.40
18321;DHT22;54904;54.350;18.664;2023-04-24T02:38:47;16.40;92.40
18321;DHT22;54904;54.350;18.664;2023-04-24T02:41:15;16.40;92.50
18321;DHT22;54904;54.350;18.664;2023-04-24T02:43:42;16.30;92.40
18321;DHT22;54904;54.350;18.664;2023-04-24T02:46:09;16.40;92.40
18321;DHT22;54904;54.350;18.664;2023-04-24T02:48:38;16.30;92.40
18321;DHT22;54904;54.350;18.664;2023-04-24T02:51:05;16.10;92.30
18321;DHT22;54904;54.350;18.664;2023-04-24T02:53:33;16.30;92.30
18321;DHT22;54904;54.350;18.664;2023-04-24T02:56:00;16.30;92.30
18321;DHT22;54904;54.350;18.664;2023-04-24T02:58:27;16.20;92.30
18321;DHT22;54904;54.350;18.664;2023-04-24T03:00:54;16.20;92.30
18321;DHT22;54904;54.350;18.664;2023-04-24T03:03:23;16.30;92.30
18321;DHT22;54904;54.350;18.664;2023-04-24T03:05:52;16.30;92.40
18321;DHT22;54904;54.350;18.664;2023-04-24T03:08:19;16.20;92.30
18321;DHT22;54904;54.350;18.664;2023-04-24T03:10:48;16.20;92.30
18321;DHT22;54904;54.350;18.664;2023-04-24T03:13:15;16.20;92.30
18321;DHT22;54904;54.350;18.664;2023-04-24T03:15:43;16.20;92.20
18321;DHT22;54904;54.350;18.664;2023-04-24T03:18:10;16.20;92.20
18321;DHT22;54904;54.350;18.664;2023-04-24T03:20:37;16.20;92.60
18321;DHT22;54904;54.350;18.664;2023-04-24T03:23:06;16.20;92.20
18321;DHT22;54904;54.350;18.664;2023-04-24T03:25:34;16.10;92.20
18321;DHT22;54904;54.350;18.664;2023-04-24T03:28:02;16.00;92.30
18321;DHT22;54904;54.350;18.664;2023-04-24T03:30:38;16.10;92.30
18321;DHT22;54904;54.350;18.664;2023-04-24T03:33:07;16.00;92.30
18321;DHT22;54904;54.350;18.664;2023-04-24T03:35:38;16.00;92.30
18321;DHT22;54904;54.350;18.664;2023-04-24T03:38:10;16.00;92.30
18321;DHT22;54904;54.350;18.664;2023-04-24T03:40:49;16.00;92.30
18321;DHT22;54904;54.350;18.664;2023-04-24T03:43:37;15.90;92.30
18321;DHT22;54904;54.350;18.664;2023-04-24T03:46:05;15.90;92.30
18321;DHT22;54904;54.350;18.664;2023-04-24T03:48:38;16.00;92.40
18321;DHT22;54904;54.350;18.664;2023-04-24T03:51:07;15.90;92.30
18321;DHT22;54904;54.350;18.664;2023-04-24T03:53:38;16.00;92.40
18321;DHT22;54904;54.350;18.664;2023-04-24T03:56:05;15.90;92.30
18321;DHT22;54904;54.350;18.664;2023-04-24T03:58:33;15.90;92.40
18321;DHT22;54904;54.350;18.664;2023-04-24T04:01:01;15.90;92.40
18321;DHT22;54904;54.350;18.664;2023-04-24T04:03:55;15.90;92.40
18321;DHT22;54904;54.350;18.664;2023-04-24T04:06:25;15.90;92.40
18321;DHT22;54904;54.350;18.664;2023-04-24T04:08:55;15.90;92.40
18321;DHT22;54904;54.350;18.664;2023-04-24T04:11:23;15.90;92.50
18321;DHT22;54904;54.350;18.664;2023-04-24T04:13:50;15.90;92.50
18321;DHT22;54904;54.350;18.664;2023-04-24T04:16:20;15.80;92.40
18321;DHT22;54904;54.350;18.664;2023-04-24T04:18:50;15.80;92.50
18321;DHT22;54904;54.350;18.664;2023-04-24T04:21:17;15.80;92.50
18321;DHT22;54904;54.350;18.664;2023-04-24T04:23:44;15.80;92.60
18321;DHT22;54904;54.350;18.664;2023-04-24T04:26:29;15.80;92.50
18321;DHT22;54904;54.350;18.664;2023-04-24T04:29:04;15.80;92.50
18321;DHT22;54904;54.350;18.664;2023-04-24T04:31:34;15.80;92.50
18321;DHT22;54904;54.350;18.664;2023-04-24T04:34:07;15.80;92.60
18321;DHT22;54904;54.350;18.664;2023-04-24T04:36:35;15.90;92.50
18321;DHT22;54904;54.350;18.664;2023-04-24T04:39:14;15.80;92.50
18321;DHT22;54904;54.350;18.664;2023-04-24T04:41:59;15.80;92.60
18321;DHT22;54904;54.350;18.664;2023-04-24T04:44:32;15.90;92.60
18321;DHT22;54904;54.350;18.664;2023-04-24T04:47:02;15.80;92.60
18321;DHT22;54904;54.350;18.664;2023-04-24T04:49:33;15.90;92.60
18321;DHT22;54904;54.350;18.664;2023-04-24T04:52:01;15.90;92.60
18321;DHT22;54904;54.350;18.664;2023-04-24T04:54:28;15.90;92.60
18321;DHT22;54904;54.350;18.664;2023-04-24T04:56:56;15.90;92.90
18321;DHT22;54904;54.350;18.664;2023-04-24T04:59:25;15.90;92.60
18321;DHT22;54904;54.350;18.664;2023-04-24T05:01:59;15.90;92.50
18321;DHT22;54904;54.350;18.664;2023-04-24T05:04:26;15.90;92.60
18321;DHT22;54904;54.350;18.664;2023-04-24T05:06:53;16.00;92.60
18321;DHT22;54904;54.350;18.664;2023-04-24T05:09:22;16.00;92.60
18321;DHT22;54904;54.350;18.664;2023-04-24T05:11:53;16.00;92.60
18321;DHT22;54904;54.350;18.664;2023-04-24T05:14:22;16.10;92.60
18321;DHT22;54904;54.350;18.664;2023-04-24T05:16:51;16.10;92.60
18321;DHT22;54904;54.350;18.664;2023-04-24T05:19:20;16.10;92.60
18321;DHT22;54904;54.350;18.664;2023-04-24T05:21:47;16.00;92.60
18321;DHT22;54904;54.350;18.664;2023-04-24T05:24:14;16.00;92.70
18321;DHT22;54904;54.350;18.664;2023-04-24T05:27:02;16.10;92.80
18321;DHT22;54904;54.350;18.664;2023-04-24T05:29:35;16.10;92.70
18321;DHT22;54904;54.350;18.664;2023-04-24T05:32:05;16.20;92.60
18321;DHT22;54904;54.350;18.664;2023-04-24T05:34:33;16.20;92.60
18321;DHT22;54904;54.350;18.664;2023-04-24T05:37:02;16.20;92.60
18321;DHT22;54904;54.350;18.664;2023-04-24T05:39:29;16.20;92.60
18321;DHT22;54904;54.350;18.664;2023-04-24T05:41:56;16.20;92.60
18321;DHT22;54904;54.350;18.664;2023-04-24T05:44:24;16.20;92.60
18321;DHT22;54904;54.350;18.664;2023-04-24T05:46:51;16.20;92.50
18321;DHT22;54904;54.350;18.664;2023-04-24T05:49:20;16.20;92.50
18321;DHT22;54904;54.350;18.664;2023-04-24T05:51:48;16.20;92.50
18321;DHT22;54904;54.350;18.664;2023-04-24T05:54:16;16.20;92.50
18321;DHT22;54904;54.350;18.664;2023-04-24T05:56:44;16.20;92.50
18321;DHT22;54904;54.350;18.664;2023-04-24T05:59:14;16.20;92.60
18321;DHT22;54904;54.350;18.664;2023-04-24T06:01:42;16.20;92.60
18321;DHT22;54904;54.350;18.664;2023-04-24T06:04:15;16.20;92.60
18321;DHT22;54904;54.350;18.664;2023-04-24T06:06:43;16.20;92.60
18321;DHT22;54904;54.350;18.664;2023-04-24T06:09:11;16.20;92.70
18321;DHT22;54904;54.350;18.664;2023-04-24T06:11:39;16.20;92.70
18321;DHT22;54904;54.350;18.664;2023-04-24T06:14:08;16.10;92.60
18321;DHT22;54904;54.350;18.664;2023-04-24T06:16:41;16.20;92.70
18321;DHT22;54904;54.350;18.664;2023-04-24T06:19:29;16.20;92.60
18321;DHT22;54904;54.350;18.664;2023-04-24T06:21:57;16.20;92.60
18321;DHT22;54904;54.350;18.664;2023-04-24T06:24:27;16.30;92.60
18321;DHT22;54904;54.350;18.664;2023-04-24T06:26:54;16.20;92.60
18321;DHT22;54904;54.350;18.664;2023-04-24T06:29:22;16.30;92.70
18321;DHT22;54904;54.350;18.664;2023-04-24T06:31:50;16.30;92.70
18321;DHT22;54904;54.350;18.664;2023-04-24T06:34:17;16.30;92.60
18321;DHT22;54904;54.350;18.664;2023-04-24T06:36:44;16.20;92.60
18321;DHT22;54904;54.350;18.664;2023-04-24T06:39:13;16.30;92.60
18321;DHT22;54904;54.350;18.664;2023-04-24T06:41:40;16.30;92.50
18321;DHT22;54904;54.350;18.664;2023-04-24T06:44:16;16.30;92.40
18321;DHT22;54904;54.350;18.664;2023-04-24T06:46:43;16.40;92.40
18321;DHT22;54904;54.350;18.664;2023-04-24T06:49:10;16.40;92.30
18321;DHT22;54904;54.350;18.664;2023-04-24T06:51:37;16.40;92.40
18321;DHT22;54904;54.350;18.664;2023-04-24T06:54:04;16.30;92.40
18321;DHT22;54904;54.350;18.664;2023-04-24T06:56:33;16.40;92.60
18321;DHT22;54904;54.350;18.664;2023-04-24T06:59:00;16.30;92.80
18321;DHT22;54904;54.350;18.664;2023-04-24T07:01:27;16.20;93.00
18321;DHT22;54904;54.350;18.664;2023-04-24T07:03:54;16.20;93.10
18321;DHT22;54904;54.350;18.664;2023-04-24T07:06:21;16.20;93.30
18321;DHT22;54904;54.350;18.664;2023-04-24T07:08:50;16.10;93.40
18321;DHT22;54904;54.350;18.664;2023-04-24T07:11:17;16.20;93.50
18321;DHT22;54904;54.350;18.664;2023-04-24T07:13:45;16.10;93.60
18321;DHT22;54904;54.350;18.664;2023-04-24T07:16:12;16.20;93.70
18321;DHT22;54904;54.350;18.664;2023-04-24T07:18:40;16.10;93.90
18321;DHT22;54904;54.350;18.664;2023-04-24T07:21:07;16.10;94.00
18321;DHT22;54904;54.350;18.664;2023-04-24T07:23:34;16.20;94.10
18321;DHT22;54904;54.350;18.664;2023-04-24T07:26:01;16.20;94.20
18321;DHT22;54904;54.350;18.664;2023-04-24T07:28:28;16.20;94.50
18321;DHT22;54904;54.350;18.664;2023-04-24T07:30:58;16.30;94.70
18321;DHT22;54904;54.350;18.664;2023-04-24T07:33:25;16.20;94.70
18321;DHT22;54904;54.350;18.664;2023-04-24T07:35:52;16.30;94.80
18321;DHT22;54904;54.350;18.664;2023-04-24T07:38:20;16.30;94.90
18321;DHT22;54904;54.350;18.664;2023-04-24T07:40:47;16.20;95.00
18321;DHT22;54904;54.350;18.664;2023-04-24T07:43:15;16.20;95.10
18321;DHT22;54904;54.350;18.664;2023-04-24T07:45:42;16.30;95.30
18321;DHT22;54904;54.350;18.664;2023-04-24T07:48:10;16.30;95.80
18321;DHT22;54904;54.350;18.664;2023-04-24T07:50:39;16.40;95.60
18321;DHT22;54904;54.350;18.664;2023-04-24T07:53:06;16.40;95.70
18321;DHT22;54904;54.350;18.664;2023-04-24T07:55:33;16.50;95.80
18321;DHT22;54904;54.350;18.664;2023-04-24T07:58:00;16.50;95.90
18321;DHT22;54904;54.350;18.664;2023-04-24T08:00:27;16.50;96.10
18321;DHT22;54904;54.350;18.664;2023-04-24T08:02:54;16.50;96.20
18321;DHT22;54904;54.350;18.664;2023-04-24T08:05:23;16.50;96.30
18321;DHT22;54904;54.350;18.664;2023-04-24T08:07:51;16.50;96.40
18321;DHT22;54904;54.350;18.664;2023-04-24T08:10:18;16.50;96.60
18321;DHT22;54904;54.350;18.664;2023-04-24T08:12:45;16.50;96.80
18321;DHT22;54904;54.350;18.664;2023-04-24T08:15:12;16.50;96.80
18321;DHT22;54904;54.350;18.664;2023-04-24T08:17:39;16.50;97.00
18321;DHT22;54904;54.350;18.664;2023-04-24T08:20:11;16.40;97.10
18321;DHT22;54904;54.350;18.664;2023-04-24T08:22:40;16.50;97.20
18321;DHT22;54904;54.350;18.664;2023-04-24T08:25:08;16.50;97.30
18321;DHT22;54904;54.350;18.664;2023-04-24T08:27:36;16.50;97.40
18321;DHT22;54904;54.350;18.664;2023-04-24T08:30:06;16.50;97.70
18321;DHT22;54904;54.350;18.664;2023-04-24T08:32:33;16.50;97.80
18321;DHT22;54904;54.350;18.664;2023-04-24T08:35:00;16.50;97.90
18321;DHT22;54904;54.350;18.664;2023-04-24T08:37:27;16.60;98.00
18321;DHT22;54904;54.350;18.664;2023-04-24T08:39:56;16.70;98.10
18321;DHT22;54904;54.350;18.664;2023-04-24T08:42:23;16.80;98.20
18321;DHT22;54904;54.350;18.664;2023-04-24T08:44:50;17.00;98.20
18321;DHT22;54904;54.350;18.664;2023-04-24T08:47:18;17.10;98.20
18321;DHT22;54904;54.350;18.664;2023-04-24T08:49:48;17.30;98.10
18321;DHT22;54904;54.350;18.664;2023-04-24T08:52:16;17.30;98.10
18321;DHT22;54904;54.350;18.664;2023-04-24T08:54:46;17.30;98.10
18321;DHT22;54904;54.350;18.664;2023-04-24T08:57:15;17.30;98.30
18321;DHT22;54904;54.350;18.664;2023-04-24T08:59:43;17.40;98.40
18321;DHT22;54904;54.350;18.664;2023-04-24T09:02:14;17.50;98.50
18321;DHT22;54904;54.350;18.664;2023-04-24T09:04:41;17.50;98.40
18321;DHT22;54904;54.350;18.664;2023-04-24T09:07:10;17.60;98.70
18321;DHT22;54904;54.350;18.664;2023-04-24T09:09:39;17.60;98.80
18321;DHT22;54904;54.350;18.664;2023-04-24T09:12:07;17.50;98.80
18321;DHT22;54904;54.350;18.664;2023-04-24T09:14:38;17.50;98.90
18321;DHT22;54904;54.350;18.664;2023-04-24T09:17:08;17.50;99.00
18321;DHT22;54904;54.350;18.664;2023-04-24T09:19:35;17.60;99.10
18321;DHT22;54904;54.350;18.664;2023-04-24T09:22:05;17.60;99.10
18321;DHT22;54904;54.350;18.664;2023-04-24T09:24:34;17.60;99.20
18321;DHT22;54904;54.350;18.664;2023-04-24T09:27:01;17.60;99.40
18321;DHT22;54904;54.350;18.664;2023-04-24T09:29:28;17.60;99.50
18321;DHT22;54904;54.350;18.664;2023-04-24T09:31:57;17.60;99.50
18321;DHT22;54904;54.350;18.664;2023-04-24T09:34:25;17.60;99.60
18321;DHT22;54904;54.350;18.664;2023-04-24T09:36:52;17.50;99.60
18321;DHT22;54904;54.350;18.664;2023-04-24T09:39:20;17.50;99.80
18321;DHT22;54904;54.350;18.664;2023-04-24T09:41:49;17.50;99.90
18321;DHT22;54904;54.350;18.664;2023-04-24T09:44:18;17.50;99.90
18321;DHT22;54904;54.350;18.664;2023-04-24T09:46:51;17.40;99.90
18321;DHT22;54904;54.350;18.664;2023-04-24T09:49:23;17.40;99.90
18321;DHT22;54904;54.350;18.664;2023-04-24T09:51:50;17.50;99.90
18321;DHT22;54904;54.350;18.664;2023-04-24T09:54:19;17.50;99.90
18321;DHT22;54904;54.350;18.664;2023-04-24T09:56:48;17.50;99.90
18321;DHT22;54904;54.350;18.664;2023-04-24T09:59:18;17.50;99.90
18321;DHT22;54904;54.350;18.664;2023-04-24T10:01:46;17.50;99.90
18321;DHT22;54904;54.350;18.664;2023-04-24T10:04:19;17.50;99.90
18321;DHT22;54904;54.350;18.664;2023-04-24T10:06:49;17.60;99.90
18321;DHT22;54904;54.350;18.664;2023-04-24T10:09:16;17.70;99.90
18321;DHT22;54904;54.350;18.664;2023-04-24T10:11:45;17.80;99.90
18321;DHT22;54904;54.350;18.664;2023-04-24T10:14:13;17.90;99.90
18321;DHT22;54904;54.350;18.664;2023-04-24T10:16:40;18.00;99.90
18321;DHT22;54904;54.350;18.664;2023-04-24T10:19:08;18.20;99.90
18321;DHT22;54904;54.350;18.664;2023-04-24T10:21:35;18.30;99.90
18321;DHT22;54904;54.350;18.664;2023-04-24T10:24:05;18.60;99.90
18321;DHT22;54904;54.350;18.664;2023-04-24T10:26:33;18.70;99.90
18321;DHT22;54904;54.350;18.664;2023-04-24T10:29:01;18.90;99.90
18321;DHT22;54904;54.350;18.664;2023-04-24T10:31:31;19.00;99.90
18321;DHT22;54904;54.350;18.664;2023-04-24T10:34:00;19.10;99.90
18321;DHT22;54904;54.350;18.664;2023-04-24T10:36:29;19.20;99.90
18321;DHT22;54904;54.350;18.664;2023-04-24T10:39:01;19.40;99.90
18321;DHT22;54904;54.350;18.664;2023-04-24T10:41:30;19.40;99.80
18321;DHT22;54904;54.350;18.664;2023-04-24T10:44:07;19.50;99.80
18321;DHT22;54904;54.350;18.664;2023-04-24T10:46:35;19.50;99.70
18321;DHT22;54904;54.350;18.664;2023-04-24T10:49:04;19.50;99.60
18321;DHT22;54904;54.350;18.664;2023-04-24T10:51:46;19.60;99.50
18321;DHT22;54904;54.350;18.664;2023-04-24T10:54:24;19.80;99.40
18321;DHT22;54904;54.350;18.664;2023-04-24T10:56:53;19.90;99.20
18321;DHT22;54904;54.350;18.664;2023-04-24T10:59:27;19.90;98.90
18321;DHT22;54904;54.350;18.664;2023-04-24T11:02:03;19.80;98.90
18321;DHT22;54904;54.350;18.664;2023-04-24T11:04:33;19.80;99.00
18321;DHT22;54904;54.350;18.664;2023-04-24T11:07:02;19.70;99.00
18321;DHT22;54904;54.350;18.664;2023-04-24T11:09:31;19.60;98.80
18321;DHT22;54904;54.350;18.664;2023-04-24T11:12:07;19.60;98.80
18321;DHT22;54904;54.350;18.664;2023-04-24T11:15:01;19.60;98.60
18321;DHT22;54904;54.350;18.664;2023-04-24T11:17:32;19.50;98.60
18321;DHT22;54904;54.350;18.664;2023-04-24T11:20:03;19.60;98.60
18321;DHT22;54904;54.350;18.664;2023-04-24T11:22:33;19.60;98.40
18321;DHT22;54904;54.350;18.664;2023-04-24T11:25:02;19.70;98.30
18321;DHT22;54904;54.350;18.664;2023-04-24T11:27:39;19.80;98.10
18321;DHT22;54904;54.350;18.664;2023-04-24T11:30:08;19.80;97.90
18321;DHT22;54904;54.350;18.664;2023-04-24T11:32:37;19.90;97.80
18321;DHT22;54904;54.350;18.664;2023-04-24T11:35:06;19.90;97.50
18321;DHT22;54904;54.350;18.664;2023-04-24T11:37:35;19.90;97.30
18321;DHT22;54904;54.350;18.664;2023-04-24T11:40:04;19.80;97.00
18321;DHT22;54904;54.350;18.664;2023-04-24T11:42:36;19.80;96.90
18321;DHT22;54904;54.350;18.664;2023-04-24T11:45:08;19.80;96.70
18321;DHT22;54904;54.350;18.664;2023-04-24T11:47:35;19.90;96.60
18321;DHT22;54904;54.350;18.664;2023-04-24T11:50:04;20.00;96.40
18321;DHT22;54904;54.350;18.664;2023-04-24T11:52:33;20.20;95.60
18321;DHT22;54904;54.350;18.664;2023-04-24T11:55:04;20.30;94.90
18321;DHT22;54904;54.350;18.664;2023-04-24T11:57:31;20.50;93.60
18321;DHT22;54904;54.350;18.664;2023-04-24T12:00:02;20.50;92.90
18321;DHT22;54904;54.350;18.664;2023-04-24T12:02:38;20.60;92.00
18321;DHT22;54904;54.350;18.664;2023-04-24T12:05:06;20.60;91.40
18321;DHT22;54904;54.350;18.664;2023-04-24T12:07:40;20.70;91.40
18321;DHT22;54904;54.350;18.664;2023-04-24T12:10:09;20.70;90.70
18321;DHT22;54904;54.350;18.664;2023-04-24T12:12:36;20.70;90.40
18321;DHT22;54904;54.350;18.664;2023-04-24T12:15:07;20.70;90.30
18321;DHT22;54904;54.350;18.664;2023-04-24T12:17:35;20.60;90.20
18321;DHT22;54904;54.350;18.664;2023-04-24T12:20:05;20.60;90.20
18321;DHT22;54904;54.350;18.664;2023-04-24T12:22:46;20.60;90.20
18321;DHT22;54904;54.350;18.664;2023-04-24T12:25:14;20.60;90.30
18321;DHT22;54904;54.350;18.664;2023-04-24T12:27:41;20.50;89.90
18321;DHT22;54904;54.350;18.664;2023-04-24T12:30:13;20.50;89.50
18321;DHT22;54904;54.350;18.664;2023-04-24T12:32:41;20.50;88.80
18321;DHT22;54904;54.350;18.664;2023-04-24T12:35:09;20.40;88.80
18321;DHT22;54904;54.350;18.664;2023-04-24T12:37:36;20.50;88.80
18321;DHT22;54904;54.350;18.664;2023-04-24T12:40:07;20.50;86.30
18321;DHT22;54904;54.350;18.664;2023-04-24T12:42:36;20.60;85.60
18321;DHT22;54904;54.350;18.664;2023-04-24T12:45:04;20.60;85.40
18321;DHT22;54904;54.350;18.664;2023-04-24T12:47:34;20.70;85.20
18321;DHT22;54904;54.350;18.664;2023-04-24T12:50:02;20.80;84.50
18321;DHT22;54904;54.350;18.664;2023-04-24T12:52:29;20.80;84.20
18321;DHT22;54904;54.350;18.664;2023-04-24T12:54:58;20.70;84.50
18321;DHT22;54904;54.350;18.664;2023-04-24T12:57:26;20.70;84.80
18321;DHT22;54904;54.350;18.664;2023-04-24T12:59:54;20.60;84.80
18321;DHT22;54904;54.350;18.664;2023-04-24T13:02:22;20.50;84.80
18321;DHT22;54904;54.350;18.664;2023-04-24T13:04:51;20.50;85.10
18321;DHT22;54904;54.350;18.664;2023-04-24T13:07:18;20.40;85.40
18321;DHT22;54904;54.350;18.664;2023-04-24T13:09:47;20.40;85.50
18321;DHT22;54904;54.350;18.664;2023-04-24T13:12:14;20.50;85.70
18321;DHT22;54904;54.350;18.664;2023-04-24T13:14:41;20.50;86.20
18321;DHT22;54904;54.350;18.664;2023-04-24T13:17:08;20.40;85.30
18321;DHT22;54904;54.350;18.664;2023-04-24T13:19:38;20.40;85.30
18321;DHT22;54904;54.350;18.664;2023-04-24T13:22:08;20.40;85.50
18321;DHT22;54904;54.350;18.664;2023-04-24T13:24:35;20.40;85.80
18321;DHT22;54904;54.350;18.664;2023-04-24T13:27:03;20.40;86.00
18321;DHT22;54904;54.350;18.664;2023-04-24T13:29:30;20.50;86.50
18321;DHT22;54904;54.350;18.664;2023-04-24T13:31:57;20.50;86.50
18321;DHT22;54904;54.350;18.664;2023-04-24T13:34:25;20.50;86.60
18321;DHT22;54904;54.350;18.664;2023-04-24T13:36:53;20.60;86.20
18321;DHT22;54904;54.350;18.664;2023-04-24T13:39:23;20.70;85.50
18321;DHT22;54904;54.350;18.664;2023-04-24T13:41:50;20.70;84.30
18321;DHT22;54904;54.350;18.664;2023-04-24T13:44:19;20.80;83.70
18321;DHT22;54904;54.350;18.664;2023-04-24T13:46:48;20.90;83.30
18321;DHT22;54904;54.350;18.664;2023-04-24T13:49:15;21.00;83.00
18321;DHT22;54904;54.350;18.664;2023-04-24T13:51:43;21.20;82.20
18321;DHT22;54904;54.350;18.664;2023-04-24T13:54:11;21.20;80.90
18321;DHT22;54904;54.350;18.664;2023-04-24T13:56:40;21.30;79.40
18321;DHT22;54904;54.350;18.664;2023-04-24T13:59:07;21.30;78.60
18321;DHT22;54904;54.350;18.664;2023-04-24T14:01:34;21.40;77.80
18321;DHT22;54904;54.350;18.664;2023-04-24T14:04:02;21.40;77.30
18321;DHT22;54904;54.350;18.664;2023-04-24T14:06:29;21.40;77.00
18321;DHT22;54904;54.350;18.664;2023-04-24T14:08:56;21.40;77.30
18321;DHT22;54904;54.350;18.664;2023-04-24T14:11:24;21.40;77.00
18321;DHT22;54904;54.350;18.664;2023-04-24T14:13:54;21.40;76.40
18321;DHT22;54904;54.350;18.664;2023-04-24T14:16:22;21.40;76.20
18321;DHT22;54904;54.350;18.664;2023-04-24T14:18:50;21.40;76.30
18321;DHT22;54904;54.350;18.664;2023-04-24T14:21:17;21.40;75.70
18321;DHT22;54904;54.350;18.664;2023-04-24T14:23:44;21.40;76.10
18321;DHT22;54904;54.350;18.664;2023-04-24T14:26:11;21.40;77.00
18321;DHT22;54904;54.350;18.664;2023-04-24T14:28:38;21.50;76.20
18321;DHT22;54904;54.350;18.664;2023-04-24T14:31:06;21.50;76.10
18321;DHT22;54904;54.350;18.664;2023-04-24T14:33:33;21.60;76.20
18321;DHT22;54904;54.350;18.664;2023-04-24T14:36:01;21.50;76.00
18321;DHT22;54904;54.350;18.664;2023-04-24T14:38:31;21.60;76.10
18321;DHT22;54904;54.350;18.664;2023-04-24T14:40:58;21.60;76.30
18321;DHT22;54904;54.350;18.664;2023-04-24T14:43:25;21.60;76.40
18321;DHT22;54904;54.350;18.664;2023-04-24T14:45:52;21.60;76.30
18321;DHT22;54904;54.350;18.664;2023-04-24T14:48:20;21.70;76.30
18321;DHT22;54904;54.350;18.664;2023-04-24T14:50:48;21.70;75.40
18321;DHT22;54904;54.350;18.664;2023-04-24T14:53:15;21.70;75.10
18321;DHT22;54904;54.350;18.664;2023-04-24T14:55:42;21.60;75.00
18321;DHT22;54904;54.350;18.664;2023-04-24T14:58:09;21.60;75.00
18321;DHT22;54904;54.350;18.664;2023-04-24T15:00:36;21.60;75.40
18321;DHT22;54904;54.350;18.664;2023-04-24T15:03:03;21.60;75.60
18321;DHT22;54904;54.350;18.664;2023-04-24T15:05:32;21.60;76.10
18321;DHT22;54904;54.350;18.664;2023-04-24T15:07:59;21.50;76.40
18321;DHT22;54904;54.350;18.664;2023-04-24T15:10:26;21.50;76.80
18321;DHT22;54904;54.350;18.664;2023-04-24T15:12:54;21.50;77.10
18321;DHT22;54904;54.350;18.664;2023-04-24T15:15:22;21.40;77.40
18321;DHT22;54904;54.350;18.664;2023-04-24T15:17:49;21.40;77.80
18321;DHT22;54904;54.350;18.664;2023-04-24T15:20:16;21.30;77.90
18321;DHT22;54904;54.350;18.664;2023-04-24T15:22:45;21.30;77.80
18321;DHT22;54904;54.350;18.664;2023-04-24T15:25:12;21.20;77.80